createdAt,value
2023-04-23T00:01:26.895Z,76.37
2023-04-23T00:03:34.116Z,76.40
2023-04-23T00:05:38.295Z,77.47
2023-04-23T00:07:43.952Z,78.11
2023-04-23T00:09:46.381Z,78.68
2023-04-23T00:11:48.571Z,78.26
2023-04-23T00:13:50.840Z,78.34
2023-04-23T00:15:53.043Z,79.32
2023-04-23T00:17:54.861Z,79.11
2023-04-23T00:19:56.635Z,78.38
2023-04-23T00:21:58.400Z,78.38
2023-04-23T00:24:00.293Z,78.46
2023-04-23T00:26:02.281Z,79.67
2023-04-23T00:28:04.576Z,80.62
2023-04-23T00:30:10.011Z,79.96
2023-04-23T00:32:11.923Z,79.73
2023-04-23T00:34:16.756Z,79.67
2023-04-23T00:36:19.233Z,79.64
2023-04-23T00:38:21.429Z,79.54
2023-04-23T00:40:23.795Z,79.73
2023-04-23T00:42:25.837Z,80.25
2023-04-23T00:44:30.149Z,80.58
2023-04-23T00:46:31.943Z,81.00
2023-04-23T00:48:34.921Z,80.61
2023-04-23T00:50:37.381Z,80.48
2023-04-23T00:52:43.086Z,80.28
2023-04-23T00:54:44.945Z,79.89
2023-04-23T00:56:49.183Z,79.56
2023-04-23T00:58:55.534Z,79.55
2023-04-23T01:00:58.150Z,78.82
2023-04-23T01:03:01.778Z,78.54
2023-04-23T01:05:05.214Z,78.77
2023-04-23T01:07:08.138Z,78.11
2023-04-23T01:09:10.698Z,78.20
2023-04-23T01:11:15.252Z,77.54
2023-04-23T01:13:17.625Z,78.05
2023-04-23T01:15:19.787Z,77.29
2023-04-23T01:17:24.213Z,77.50
2023-04-23T01:19:30.245Z,77.63
2023-04-23T01:21:32.916Z,76.82
2023-04-23T01:23:34.907Z,76.05
2023-04-23T01:25:36.852Z,76.38
2023-04-23T01:27:39.361Z,75.23
2023-04-23T01:29:42.474Z,75.60
2023-04-23T01:31:45.275Z,75.17
2023-04-23T01:33:47.694Z,75.79
2023-04-23T01:35:50.148Z,75.21
2023-04-23T01:37:54.281Z,76.53
2023-04-23T01:39:57.001Z,76.58
2023-04-23T01:41:59.337Z,77.15
2023-04-23T01:44:02.563Z,77.20
2023-04-23T01:46:05.058Z,77.63
2023-04-23T01:48:07.278Z,78.05
2023-04-23T01:50:12.495Z,77.71
2023-04-23T01:52:14.737Z,77.54
2023-04-23T01:54:17.327Z,77.55
2023-04-23T01:56:23.567Z,78.67
2023-04-23T01:58:25.654Z,78.32
2023-04-23T02:00:29.669Z,78.60
2023-04-23T02:02:31.760Z,78.87
2023-04-23T02:04:34.641Z,78.20
2023-04-23T02:06:36.783Z,78.68
2023-04-23T02:08:42.107Z,78.55
2023-04-23T02:10:44.559Z,77.29
2023-04-23T02:12:49.561Z,77.17
2023-04-23T02:14:51.980Z,76.25
2023-04-23T02:16:54.687Z,76.08
2023-04-23T02:18:57.043Z,76.09
2023-04-23T02:21:00.150Z,76.17
2023-04-23T02:23:02.452Z,76.00
2023-04-23T02:25:05.499Z,75.08
2023-04-23T02:27:07.366Z,74.83
2023-04-23T02:29:09.265Z,74.61
2023-04-23T02:31:11.184Z,74.88
2023-04-23T02:33:13.720Z,74.71
2023-04-23T02:35:16.528Z,74.68
2023-04-23T02:37:18.368Z,74.74
2023-04-23T02:39:20.249Z,74.89
2023-04-23T02:41:22.394Z,75.23
2023-04-23T02:43:24.636Z,75.24
2023-04-23T02:45:27.039Z,75.60
2023-04-23T02:47:30.317Z,76.66
2023-04-23T02:49:32.470Z,76.19
2023-04-23T02:51:34.534Z,76.15
2023-04-23T02:53:36.595Z,76.08
2023-04-23T02:55:38.795Z,76.27
2023-04-23T02:57:41.280Z,75.12
2023-04-23T02:59:43.843Z,74.95
2023-04-23T03:01:46.101Z,74.33
2023-04-23T03:03:48.815Z,73.98
2023-04-23T03:05:51.166Z,73.54
2023-04-23T03:07:53.050Z,74.05
2023-04-23T03:09:55.657Z,73.32
2023-04-23T03:11:58.109Z,73.63
2023-04-23T03:14:00.272Z,73.06
2023-04-23T03:16:02.319Z,72.72
2023-04-23T03:18:06.260Z,72.37
2023-04-23T03:20:11.794Z,71.88
2023-04-23T03:22:14.157Z,71.94
2023-04-23T03:24:16.829Z,71.10
2023-04-23T03:26:18.963Z,70.65
2023-04-23T03:28:20.965Z,70.97
2023-04-23T03:30:22.922Z,70.09
2023-04-23T03:32:25.054Z,69.83
2023-04-23T03:34:27.234Z,69.09
2023-04-23T03:36:29.210Z,69.29
2023-04-23T03:38:31.255Z,68.92
2023-04-23T03:40:33.235Z,69.00
2023-04-23T03:42:37.700Z,69.28
2023-04-23T03:44:40.141Z,68.98
2023-04-23T03:46:42.332Z,68.72
2023-04-23T03:48:44.334Z,68.52
2023-04-23T03:50:46.414Z,68.20
2023-04-23T03:52:48.393Z,68.74
2023-04-23T03:54:51.187Z,68.43
2023-04-23T03:56:53.932Z,68.69
2023-04-23T03:58:55.880Z,68.99
2023-04-23T04:00:57.972Z,68.40
2023-04-23T04:03:02.694Z,68.52
2023-04-23T04:05:06.177Z,68.22
2023-04-23T04:07:09.063Z,69.08
2023-04-23T04:09:11.221Z,69.31
2023-04-23T04:11:13.252Z,69.48
2023-04-23T04:13:16.203Z,70.02
2023-04-23T04:15:20.520Z,69.41
2023-04-23T04:17:22.605Z,69.83
2023-04-23T04:19:24.974Z,70.96
2023-04-23T04:21:28.412Z,70.39
2023-04-23T04:23:30.349Z,71.03
2023-04-23T04:25:32.620Z,72.53
2023-04-23T04:27:34.869Z,71.99
2023-04-23T04:29:37.708Z,72.25
2023-04-23T04:31:39.710Z,71.50
2023-04-23T04:33:47.057Z,71.60
2023-04-23T04:35:49.782Z,71.90
2023-04-23T04:37:54.279Z,71.80
2023-04-23T04:39:56.255Z,71.15
2023-04-23T04:42:00.119Z,71.16
2023-04-23T04:44:02.408Z,71.33
2023-04-23T04:46:07.301Z,71.20
2023-04-23T04:48:10.231Z,70.24
2023-04-23T04:50:12.658Z,70.08
2023-04-23T04:52:14.534Z,69.72
2023-04-23T04:54:16.450Z,69.95
2023-04-23T04:56:19.053Z,69.15
2023-04-23T04:58:21.066Z,69.57
2023-04-23T05:00:28.276Z,69.68
2023-04-23T05:02:30.428Z,69.62
2023-04-23T05:04:32.822Z,69.17
2023-04-23T05:06:35.220Z,69.89
2023-04-23T05:08:37.340Z,69.49
2023-04-23T05:10:39.336Z,69.47
2023-04-23T05:12:43.411Z,69.44
2023-04-23T05:14:45.780Z,69.37
2023-04-23T05:16:48.031Z,68.79
2023-04-23T05:18:49.980Z,69.30
2023-04-23T05:20:51.987Z,69.21
2023-04-23T05:22:54.452Z,69.27
2023-04-23T05:24:57.419Z,69.43
2023-04-23T05:26:59.342Z,69.39
2023-04-23T05:29:01.546Z,69.65
2023-04-23T05:31:03.504Z,69.69
2023-04-23T05:33:09.674Z,69.18
2023-04-23T05:35:13.035Z,69.10
2023-04-23T05:37:16.270Z,68.44
2023-04-23T05:39:19.804Z,68.39
2023-04-23T05:41:22.424Z,68.57
2023-04-23T05:43:24.679Z,67.87
2023-04-23T05:45:26.729Z,68.05
2023-04-23T05:47:30.399Z,68.22
2023-04-23T05:49:32.358Z,67.96
2023-04-23T05:51:36.727Z,68.42
2023-04-23T05:53:38.927Z,68.13
2023-04-23T05:55:44.556Z,68.52
2023-04-23T05:57:46.886Z,67.79
2023-04-23T05:59:49.043Z,68.09
2023-04-23T06:01:51.988Z,67.77
2023-04-23T06:03:54.581Z,68.06
2023-04-23T06:05:56.958Z,68.25
2023-04-23T06:07:59.353Z,67.47
2023-04-23T06:10:01.499Z,67.92
2023-04-23T06:12:03.767Z,67.25
2023-04-23T06:14:06.024Z,67.63
2023-04-23T06:16:10.571Z,67.72
2023-04-23T06:18:17.138Z,67.50
2023-04-23T06:20:22.638Z,67.49
2023-04-23T06:22:28.123Z,67.12
2023-04-23T06:24:32.151Z,67.31
2023-04-23T06:26:34.492Z,67.34
2023-04-23T06:28:40.160Z,67.22
2023-04-23T06:30:42.737Z,67.38
2023-04-23T06:32:45.126Z,66.85
2023-04-23T06:34:59.983Z,66.60
2023-04-23T06:37:03.400Z,67.36
2023-04-23T06:39:05.375Z,67.40
2023-04-23T06:41:07.662Z,67.14
2023-04-23T06:43:14.902Z,66.72
2023-04-23T06:45:17.764Z,67.25
2023-04-23T06:47:20.616Z,66.89
2023-04-23T06:49:23.645Z,66.88
2023-04-23T06:51:28.157Z,66.09
2023-04-23T06:53:31.195Z,66.55
2023-04-23T06:55:34.050Z,66.27
2023-04-23T06:57:47.991Z,66.65
2023-04-23T06:59:50.145Z,66.13
2023-04-23T07:01:52.449Z,66.75
2023-04-23T07:03:55.615Z,65.96
2023-04-23T07:05:58.546Z,65.97
2023-04-23T07:08:01.633Z,65.95
2023-04-23T07:10:05.280Z,65.53
2023-04-23T07:12:08.914Z,65.60
2023-04-23T07:14:15.166Z,65.33
2023-04-23T07:16:19.166Z,65.05
2023-04-23T07:18:23.592Z,64.77
2023-04-23T07:20:26.650Z,64.69
2023-04-23T07:22:31.081Z,64.96
2023-04-23T07:24:44.995Z,64.58
2023-04-23T07:26:47.953Z,64.18
2023-04-23T07:29:01.520Z,64.44
2023-04-23T07:31:04.555Z,64.10
2023-04-23T07:33:07.999Z,63.96
2023-04-23T07:35:14.415Z,63.33
2023-04-23T07:37:17.209Z,63.93
2023-04-23T07:39:19.924Z,63.84
2023-04-23T07:41:23.999Z,63.48
2023-04-23T07:43:31.626Z,63.38
2023-04-23T07:45:35.087Z,63.11
2023-04-23T07:47:41.966Z,63.53
2023-04-23T07:49:45.486Z,63.15
2023-04-23T07:51:53.769Z,63.11
2023-04-23T07:53:58.113Z,62.66
2023-04-23T07:56:02.501Z,62.87
2023-04-23T07:58:06.281Z,62.69
2023-04-23T08:00:11.449Z,62.05
2023-04-23T08:02:15.735Z,62.60
2023-04-23T08:04:19.503Z,61.92
2023-04-23T08:06:26.522Z,61.88
2023-04-23T08:08:28.957Z,61.78
2023-04-23T08:10:32.329Z,61.42
2023-04-23T08:12:41.536Z,61.03
2023-04-23T08:14:50.971Z,60.92
2023-04-23T08:16:54.650Z,61.73
2023-04-23T08:19:30.265Z,61.83
2023-04-23T08:23:54.793Z,61.27
2023-04-23T08:28:52.376Z,60.61
2023-04-23T08:31:12.027Z,60.23
2023-04-23T08:33:25.456Z,60.87
2023-04-23T08:35:42.422Z,60.34
2023-04-23T08:38:06.578Z,60.46
2023-04-23T08:40:34.537Z,60.60
2023-04-23T08:42:54.698Z,60.90
2023-04-23T08:44:58.924Z,61.54
2023-04-23T08:47:27.594Z,61.45
2023-04-23T08:50:19.187Z,62.79
2023-04-23T08:52:20.785Z,60.80
2023-04-23T08:54:30.181Z,60.72
2023-04-23T08:56:40.594Z,59.69
2023-04-23T08:58:48.672Z,59.12
2023-04-23T09:00:50.673Z,58.72
2023-04-23T09:02:52.849Z,58.89
2023-04-23T09:04:56.414Z,58.48
2023-04-23T09:06:59.082Z,59.09
2023-04-23T09:09:01.041Z,58.78
2023-04-23T09:11:04.936Z,60.50
2023-04-23T09:13:06.771Z,59.92
2023-04-23T09:15:11.189Z,60.23
2023-04-23T09:17:13.070Z,60.49
2023-04-23T09:19:15.516Z,60.18
2023-04-23T09:21:17.343Z,59.42
2023-04-23T09:23:22.001Z,59.61
2023-04-23T09:25:24.432Z,60.06
2023-04-23T09:27:26.575Z,60.31
2023-04-23T09:29:28.723Z,60.20
2023-04-23T09:31:30.699Z,60.42
2023-04-23T09:33:35.805Z,60.97
2023-04-23T09:35:40.747Z,60.87
2023-04-23T09:37:45.203Z,60.52
2023-04-23T09:39:47.105Z,60.49
2023-04-23T09:41:49.246Z,61.10
2023-04-23T09:43:54.298Z,60.86
2023-04-23T09:45:56.329Z,60.15
2023-04-23T09:48:00.030Z,59.76
2023-04-23T09:50:02.203Z,60.14
2023-04-23T09:52:07.486Z,60.40
2023-04-23T09:54:21.880Z,60.61
2023-04-23T09:56:25.056Z,60.47
2023-04-23T09:58:28.930Z,60.68
2023-04-23T10:00:40.033Z,60.69
2023-04-23T10:02:47.207Z,60.38
2023-04-23T10:05:00.642Z,60.90
2023-04-23T10:07:18.818Z,61.14
2023-04-23T10:09:24.826Z,61.28
2023-04-23T10:11:28.302Z,60.99
2023-04-23T10:13:30.588Z,61.60
2023-04-23T10:15:34.329Z,61.67
2023-04-23T10:17:37.788Z,61.17
2023-04-23T10:19:41.559Z,61.18
2023-04-23T10:21:54.672Z,61.57
2023-04-23T10:24:00.945Z,62.72
2023-04-23T10:26:05.217Z,62.44
2023-04-23T10:28:09.362Z,62.54
2023-04-23T10:30:13.548Z,61.35
2023-04-23T10:32:19.741Z,61.27
2023-04-23T10:34:22.258Z,61.63
2023-04-23T10:36:26.112Z,61.34
2023-04-23T10:38:28.544Z,60.74
2023-04-23T10:40:32.452Z,61.00
2023-04-23T10:42:34.462Z,60.90
2023-04-23T10:46:53.951Z,59.73
2023-04-23T10:49:07.465Z,59.09
2023-04-23T10:51:31.835Z,58.79
2023-04-23T10:53:32.246Z,59.17
2023-04-23T10:55:34.129Z,59.48
2023-04-23T10:58:00.823Z,59.50
2023-04-23T11:00:04.887Z,59.67
2023-04-23T11:02:12.084Z,59.60
2023-04-23T11:04:25.525Z,58.88
2023-04-23T11:06:46.723Z,57.38
2023-04-23T11:08:54.233Z,57.35
2023-04-23T11:10:58.851Z,58.27
2023-04-23T11:13:21.413Z,58.66
2023-04-23T11:15:24.409Z,59.18
2023-04-23T11:17:33.752Z,59.27
2023-04-23T11:19:37.205Z,60.02
2023-04-23T11:21:58.963Z,61.40
2023-04-23T11:24:02.895Z,61.38
2023-04-23T11:26:06.067Z,60.98
2023-04-23T11:28:09.332Z,60.87
2023-04-23T11:30:17.368Z,62.21
2023-04-23T11:32:19.510Z,62.72
2023-04-23T11:34:22.741Z,61.97
2023-04-23T11:36:25.187Z,62.87
2023-04-23T11:38:33.736Z,63.19
2023-04-23T11:40:35.881Z,63.63
2023-04-23T11:42:47.515Z,62.85
2023-04-23T11:44:49.499Z,61.41
2023-04-23T11:46:51.375Z,61.62
2023-04-23T11:48:53.406Z,62.15
2023-04-23T11:50:55.373Z,61.73
2023-04-23T11:52:57.571Z,61.74
2023-04-23T11:55:04.269Z,61.71
2023-04-23T11:57:06.851Z,63.04
2023-04-23T11:59:08.831Z,63.19
2023-04-23T12:01:12.799Z,62.72
2023-04-23T12:03:16.569Z,63.20
2023-04-23T12:05:30.119Z,62.31
2023-04-23T12:07:33.048Z,62.28
2023-04-23T12:09:36.241Z,62.26
2023-04-23T12:11:38.672Z,62.65
2023-04-23T12:13:41.947Z,62.12
2023-04-23T12:15:47.153Z,61.91
2023-04-23T12:17:51.226Z,61.80
2023-04-23T12:19:53.045Z,61.13
2023-04-23T12:21:57.482Z,61.50
2023-04-23T12:23:59.522Z,62.30
2023-04-23T12:26:01.869Z,62.83
2023-04-23T12:28:05.742Z,63.51
2023-04-23T12:30:09.038Z,63.87
2023-04-23T12:32:15.459Z,64.72
2023-04-23T12:34:17.853Z,65.07
2023-04-23T12:36:20.106Z,64.88
2023-04-23T12:38:24.462Z,66.94
2023-04-23T12:40:29.503Z,67.10
2023-04-23T12:42:31.591Z,67.03
2023-04-23T12:44:35.645Z,67.81
2023-04-23T12:46:37.864Z,68.11
2023-04-23T12:48:39.764Z,68.81
2023-04-23T12:50:44.339Z,67.53
2023-04-23T12:52:46.292Z,66.02
2023-04-23T12:54:52.434Z,65.63
2023-04-23T12:56:54.485Z,64.86
2023-04-23T12:58:56.808Z,66.11
2023-04-23T13:00:58.906Z,66.00
2023-04-23T13:03:02.679Z,67.17
2023-04-23T13:05:05.720Z,67.00
2023-04-23T13:07:07.668Z,67.22
2023-04-23T13:09:10.647Z,67.95
2023-04-23T13:11:12.575Z,68.25
2023-04-23T13:13:14.652Z,68.81
2023-04-23T13:15:20.418Z,68.87
2023-04-23T13:17:23.400Z,69.04
2023-04-23T13:19:25.827Z,69.49
2023-04-23T13:21:28.081Z,70.13
2023-04-23T13:23:30.022Z,70.13
2023-04-23T13:25:32.063Z,70.26
2023-04-23T13:27:33.969Z,69.80
2023-04-23T13:29:35.987Z,69.20
2023-04-23T13:31:38.361Z,69.60
2023-04-23T13:33:41.403Z,69.54
2023-04-23T13:35:43.377Z,68.88
2023-04-23T13:37:45.651Z,69.23
2023-04-23T13:39:50.819Z,69.18
2023-04-23T13:42:06.170Z,68.69
2023-04-23T13:44:10.754Z,69.15
2023-04-23T13:46:13.742Z,68.83
2023-04-23T13:48:18.793Z,68.96
2023-04-23T13:50:21.227Z,68.70
2023-04-23T13:52:23.132Z,68.41
2023-04-23T13:54:29.635Z,68.28
2023-04-23T13:56:32.478Z,65.80
2023-04-23T13:58:36.797Z,63.18
2023-04-23T14:00:38.905Z,63.46
2023-04-23T14:02:41.140Z,62.72
2023-04-23T14:04:43.136Z,62.68
2023-04-23T14:06:45.384Z,62.25
2023-04-23T14:08:47.512Z,62.37
2023-04-23T14:10:49.470Z,62.53
2023-04-23T14:14:06.799Z,62.38
2023-04-23T14:16:08.876Z,61.05
2023-04-23T14:18:10.962Z,60.59
2023-04-23T14:20:15.795Z,60.67
2023-04-23T14:22:17.813Z,61.14
2023-04-23T14:24:27.914Z,60.48
2023-04-23T14:26:47.451Z,59.39
2023-04-23T14:28:52.339Z,59.37
2023-04-23T14:30:57.191Z,59.87
2023-04-23T14:32:59.542Z,59.65
2023-04-23T14:35:03.311Z,60.24
2023-04-23T14:37:05.491Z,61.11
2023-04-23T14:39:07.740Z,58.60
2023-04-23T14:41:12.330Z,59.18
2023-04-23T14:43:15.770Z,59.68
2023-04-23T14:45:19.224Z,58.66
2023-04-23T14:47:21.311Z,56.71
2023-04-23T14:49:24.352Z,56.92
2023-04-23T14:51:27.699Z,56.42
2023-04-23T14:53:29.947Z,54.46
2023-04-23T14:55:31.937Z,55.02
2023-04-23T14:57:33.878Z,54.15
2023-04-23T14:59:36.400Z,54.16
2023-04-23T15:01:38.528Z,53.48
2023-04-23T15:03:41.237Z,53.62
2023-04-23T15:05:43.490Z,52.07
2023-04-23T15:07:45.475Z,51.64
2023-04-23T15:09:47.520Z,51.38
2023-04-23T15:11:49.496Z,49.75
2023-04-23T15:14:04.235Z,50.23
2023-04-23T15:16:26.317Z,50.24
2023-04-23T15:18:37.946Z,48.27
2023-04-23T15:20:40.158Z,47.19
2023-04-23T15:22:42.545Z,47.00
2023-04-23T15:24:44.726Z,45.62
2023-04-23T15:26:46.884Z,47.61
2023-04-23T15:28:49.446Z,48.15
2023-04-23T15:30:51.676Z,47.25
2023-04-23T15:32:55.917Z,44.36
2023-04-23T15:34:57.887Z,46.25
2023-04-23T15:37:00.148Z,46.05
2023-04-23T15:39:02.321Z,45.58
2023-04-23T15:41:04.849Z,44.12
2023-04-23T15:43:06.776Z,43.00
2023-04-23T15:45:13.102Z,43.15
2023-04-23T15:47:15.127Z,41.18
2023-04-23T15:49:17.300Z,42.55
2023-04-23T15:51:19.442Z,43.35
2023-04-23T15:53:23.173Z,41.00
2023-04-23T15:55:26.145Z,41.58
2023-04-23T15:57:28.251Z,40.31
2023-04-23T15:59:30.409Z,41.93
2023-04-23T16:01:32.570Z,41.33
2023-04-23T16:03:37.159Z,40.19
2023-04-23T16:05:39.366Z,40.61
2023-04-23T16:07:41.529Z,40.50
2023-04-23T16:09:43.834Z,40.48
2023-04-23T16:11:46.244Z,41.44
2023-04-23T16:13:48.288Z,41.76
2023-04-23T16:15:53.456Z,41.35
2023-04-23T16:17:56.760Z,42.01
2023-04-23T16:19:58.750Z,41.66
2023-04-23T16:22:00.867Z,42.04
2023-04-23T16:24:03.209Z,42.12
2023-04-23T16:26:09.105Z,41.78
2023-04-23T16:28:13.472Z,42.60
2023-04-23T16:30:15.950Z,42.72
2023-04-23T16:32:20.944Z,42.14
2023-04-23T16:34:22.948Z,43.18
2023-04-23T16:36:25.107Z,42.57
2023-04-23T16:38:27.189Z,42.73
2023-04-23T16:40:29.558Z,42.49
2023-04-23T16:42:31.882Z,41.54
2023-04-23T16:44:36.293Z,42.07
2023-04-23T16:46:38.403Z,42.04
2023-04-23T16:48:40.613Z,41.58
2023-04-23T16:50:44.518Z,41.12
2023-04-23T16:52:46.924Z,41.56
2023-04-23T16:54:49.730Z,42.07
2023-04-23T16:56:51.844Z,41.94
2023-04-23T16:58:54.190Z,42.32
2023-04-23T17:00:56.230Z,41.74
2023-04-23T17:02:58.574Z,40.52
2023-04-23T17:05:00.662Z,41.34
2023-04-23T17:07:03.303Z,40.75
2023-04-23T17:09:06.062Z,41.00
2023-04-23T17:11:08.729Z,40.02
2023-04-23T17:13:10.802Z,40.20
2023-04-23T17:15:12.863Z,40.08
2023-04-23T17:17:15.027Z,40.30
2023-04-23T17:19:18.695Z,41.03
2023-04-23T17:21:20.981Z,40.98
2023-04-23T17:23:23.273Z,41.46
2023-04-23T17:25:25.424Z,42.99
2023-04-23T17:27:27.487Z,43.25
2023-04-23T17:29:29.541Z,43.55
2023-04-23T17:31:31.641Z,43.57
2023-04-23T17:33:34.088Z,44.34
2023-04-23T17:35:36.277Z,45.04
2023-04-23T17:37:38.336Z,47.29
2023-04-23T17:39:40.271Z,47.45
2023-04-23T17:41:42.370Z,48.29
2023-04-23T17:43:45.590Z,47.88
2023-04-23T17:45:48.132Z,48.36
2023-04-23T17:47:50.146Z,46.79
2023-04-23T17:49:52.264Z,46.87
2023-04-23T17:51:54.373Z,46.07
2023-04-23T17:53:56.723Z,45.75
2023-04-23T17:56:03.145Z,45.87
2023-04-23T17:58:06.736Z,45.95
2023-04-23T18:00:10.189Z,45.83
2023-04-23T18:02:12.206Z,46.19
2023-04-23T18:04:17.479Z,46.66
2023-04-23T18:06:20.724Z,47.20
2023-04-23T18:08:22.700Z,46.64
2023-04-23T18:10:24.846Z,46.64
2023-04-23T18:12:27.633Z,46.88
2023-04-23T18:14:29.811Z,46.57
2023-04-23T18:16:31.922Z,46.97
2023-04-23T18:18:34.042Z,48.31
2023-04-23T18:20:38.701Z,49.56
2023-04-23T18:22:41.732Z,51.92
2023-04-23T18:24:44.660Z,52.98
2023-04-23T18:26:48.751Z,54.79
2023-04-23T18:28:50.862Z,56.44
2023-04-23T18:30:54.497Z,57.71
2023-04-23T18:33:08.923Z,59.28
2023-04-23T18:35:11.061Z,61.05
2023-04-23T18:37:39.035Z,62.49
2023-04-23T18:39:41.385Z,64.24
2023-04-23T18:41:43.611Z,64.37
2023-04-23T18:43:48.230Z,65.00
2023-04-23T18:45:50.844Z,65.86
2023-04-23T18:48:04.656Z,66.17
2023-04-23T18:50:10.044Z,66.37
2023-04-23T18:52:12.224Z,67.00
2023-04-23T18:54:15.186Z,67.93
2023-04-23T18:56:17.191Z,67.83
2023-04-23T18:58:19.494Z,68.23
2023-04-23T19:00:21.757Z,69.05
2023-04-23T19:02:34.682Z,70.17
2023-04-23T19:04:38.077Z,69.04
2023-04-23T19:06:40.543Z,69.46
2023-04-23T19:08:42.830Z,68.92
2023-04-23T19:10:44.996Z,69.70
2023-04-23T19:12:47.161Z,69.48
2023-04-23T19:14:49.120Z,69.79
2023-04-23T19:16:51.392Z,70.15
2023-04-23T19:18:53.517Z,70.31
2023-04-23T19:20:55.928Z,70.86
2023-04-23T19:22:58.201Z,70.78
2023-04-23T19:25:01.045Z,70.49
2023-04-23T19:27:03.118Z,70.54
2023-04-23T19:29:05.016Z,70.09
2023-04-23T19:31:07.983Z,69.33
2023-04-23T19:33:12.881Z,70.36
2023-04-23T19:35:17.298Z,70.36
2023-04-23T19:37:19.248Z,71.65
2023-04-23T19:39:23.721Z,71.19
2023-04-23T19:41:26.381Z,71.18
2023-04-23T19:43:30.770Z,71.69
2023-04-23T19:45:36.661Z,71.55
2023-04-23T19:47:40.792Z,71.86
2023-04-23T19:49:43.689Z,71.94
2023-04-23T19:51:49.382Z,72.21
2023-04-23T19:53:56.009Z,73.18
2023-04-23T19:55:58.048Z,72.83
2023-04-23T19:58:06.680Z,73.34
2023-04-23T20:00:13.719Z,73.22
2023-04-23T20:02:16.915Z,72.97
2023-04-23T20:04:19.032Z,72.10
2023-04-23T20:06:21.309Z,72.17
2023-04-23T20:08:29.277Z,72.20
2023-04-23T20:10:31.786Z,71.83
2023-04-23T20:12:34.153Z,71.44
2023-04-23T20:14:39.199Z,71.83
2023-04-23T20:16:41.813Z,71.66
2023-04-23T20:18:47.440Z,71.36
2023-04-23T20:20:50.093Z,71.85
2023-04-23T20:22:52.028Z,71.39
2023-04-23T20:24:54.203Z,70.69
2023-04-23T20:26:56.935Z,70.65
2023-04-23T20:28:59.079Z,70.46
2023-04-23T20:31:03.296Z,70.84
2023-04-23T20:33:06.102Z,71.07
2023-04-23T20:35:09.574Z,70.14
2023-04-23T20:37:14.466Z,70.87
2023-04-23T20:39:20.492Z,71.24
2023-04-23T20:41:23.148Z,71.51
2023-04-23T20:43:25.092Z,71.67
2023-04-23T20:45:27.233Z,71.45
2023-04-23T20:47:29.132Z,70.78
2023-04-23T20:49:32.755Z,70.70
2023-04-23T20:51:34.804Z,71.81
2023-04-23T20:53:38.323Z,71.12
2023-04-23T20:55:40.224Z,71.44
2023-04-23T20:57:42.150Z,71.81
2023-04-23T20:59:44.331Z,71.43
2023-04-23T21:01:46.603Z,71.94
2023-04-23T21:03:49.180Z,71.51
2023-04-23T21:05:51.463Z,71.71
2023-04-23T21:07:54.010Z,72.36
2023-04-23T21:09:56.130Z,71.93
2023-04-23T21:11:58.627Z,71.49
2023-04-23T21:14:01.623Z,71.59
2023-04-23T21:16:04.101Z,71.83
2023-04-23T21:18:06.275Z,72.08
2023-04-23T21:20:11.932Z,72.21
2023-04-23T21:22:13.845Z,72.07
2023-04-23T21:24:15.700Z,71.59
2023-04-23T21:26:17.582Z,70.84
2023-04-23T21:28:19.878Z,71.17
2023-04-23T21:30:36.856Z,71.67
2023-04-23T21:32:38.786Z,70.64
2023-04-23T21:34:40.858Z,71.37
2023-04-23T21:36:44.981Z,71.09
2023-04-23T21:38:46.897Z,71.55
2023-04-23T21:40:49.083Z,70.99
2023-04-23T21:42:51.095Z,70.77
2023-04-23T21:44:52.999Z,70.96
2023-04-23T21:46:54.893Z,70.02
2023-04-23T21:48:56.983Z,70.54
2023-04-23T21:50:58.927Z,70.14
2023-04-23T21:53:03.248Z,69.78
2023-04-23T21:55:06.592Z,69.80
2023-04-23T21:57:08.529Z,70.05
2023-04-23T21:59:10.756Z,69.64
2023-04-23T22:01:12.753Z,69.77
2023-04-23T22:03:17.470Z,70.23
2023-04-23T22:05:29.615Z,70.49
2023-04-23T22:07:31.536Z,69.99
2023-04-23T22:09:33.482Z,70.45
2023-04-23T22:11:35.438Z,70.47
2023-04-23T22:13:37.384Z,70.28
2023-04-23T22:15:39.313Z,69.62
2023-04-23T22:17:46.414Z,70.44
2023-04-23T22:19:52.319Z,71.11
2023-04-23T22:21:55.897Z,71.12
2023-04-23T22:23:57.983Z,70.26
2023-04-23T22:25:59.976Z,70.46
2023-04-23T22:28:03.630Z,71.12
2023-04-23T22:30:08.411Z,71.55
2023-04-23T22:32:10.364Z,71.02
2023-04-23T22:34:12.250Z,71.05
2023-04-23T22:36:14.362Z,70.88
2023-04-23T22:38:16.477Z,71.51
2023-04-23T22:40:18.563Z,71.07
2023-04-23T22:42:20.784Z,71.91
2023-04-23T22:44:22.622Z,71.78
2023-04-23T22:46:24.501Z,71.67
2023-04-23T22:48:30.978Z,71.57
2023-04-23T22:50:33.219Z,71.80
2023-04-23T22:52:35.507Z,71.76
2023-04-23T22:54:37.634Z,71.29
2023-04-23T22:56:39.494Z,72.00
2023-04-23T22:58:41.541Z,71.66
2023-04-23T23:00:43.474Z,72.67
2023-04-23T23:02:45.653Z,71.85
2023-04-23T23:04:47.641Z,72.89
2023-04-23T23:06:49.534Z,72.16
2023-04-23T23:08:51.431Z,71.65
2023-04-23T23:10:53.474Z,72.00
2023-04-23T23:12:55.483Z,71.90
2023-04-23T23:14:57.267Z,72.21
2023-04-23T23:16:59.515Z,71.40
2023-04-23T23:19:04.392Z,71.55
2023-04-23T23:21:06.485Z,71.94
2023-04-23T23:23:08.498Z,71.42
2023-04-23T23:25:12.995Z,71.71
2023-04-23T23:27:15.286Z,71.88
2023-04-23T23:29:17.311Z,71.78
2023-04-23T23:31:19.193Z,72.34
2023-04-23T23:33:21.650Z,71.82
2023-04-23T23:35:23.644Z,72.51
2023-04-23T23:37:25.557Z,71.96
2023-04-23T23:39:28.970Z,72.76
2023-04-23T23:41:30.886Z,72.11
2023-04-23T23:43:32.731Z,71.41
2023-04-23T23:45:35.293Z,71.00
2023-04-23T23:47:37.600Z,70.84
2023-04-23T23:49:39.599Z,70.79
2023-04-23T23:51:41.523Z,71.43
2023-04-23T23:53:43.395Z,71.26
2023-04-23T23:55:45.190Z,71.34
2023-04-23T23:57:46.975Z,71.68
2023-04-23T23:59:48.782Z,71.33
